createdAt,value
2018-08-30T00:02:14.475Z,76.00
2018-08-30T00:05:19.237Z,76.20
2018-08-30T00:08:23.703Z,76.30
2018-08-30T00:11:28.140Z,76.10
2018-08-30T00:14:32.752Z,76.40
2018-08-30T00:17:37.179Z,76.60
2018-08-30T00:20:41.700Z,76.90
2018-08-30T00:23:46.165Z,77.20
2018-08-30T00:26:50.586Z,77.30
2018-08-30T00:29:55.025Z,77.00
2018-08-30T00:32:59.441Z,76.70
2018-08-30T00:36:03.935Z,76.80
2018-08-30T00:39:10.102Z,76.50
2018-08-30T00:42:14.534Z,76.70
2018-08-30T00:45:18.998Z,76.60
2018-08-30T00:48:23.422Z,76.50
2018-08-30T00:51:27.886Z,76.10
2018-08-30T00:54:32.341Z,75.80
2018-08-30T00:57:36.777Z,75.60
2018-08-30T01:00:41.325Z,75.90
2018-08-30T01:03:45.788Z,75.90
2018-08-30T01:06:50.241Z,76.50
2018-08-30T01:09:54.691Z,76.60
2018-08-30T01:12:59.148Z,77.00
2018-08-30T01:16:03.597Z,77.10
2018-08-30T01:19:08.050Z,77.00
2018-08-30T01:22:12.570Z,77.10
2018-08-30T01:25:17.017Z,77.70
2018-08-30T01:28:21.437Z,77.50
2018-08-30T01:31:25.910Z,77.70
2018-08-30T01:34:30.389Z,77.50
2018-08-30T01:37:34.845Z,77.70
2018-08-30T01:40:39.290Z,77.70
2018-08-30T01:43:43.895Z,77.50
2018-08-30T01:46:48.329Z,76.80
2018-08-30T01:49:52.842Z,75.50
2018-08-30T01:52:57.293Z,74.90
2018-08-30T01:56:01.764Z,74.30
2018-08-30T01:59:06.218Z,73.40
2018-08-30T02:02:10.957Z,73.50
2018-08-30T02:05:15.386Z,73.70
2018-08-30T02:08:19.824Z,73.60
2018-08-30T02:11:24.297Z,73.90
2018-08-30T02:14:28.758Z,74.00
2018-08-30T02:17:33.273Z,74.80
2018-08-30T02:20:37.719Z,74.60
2018-08-30T02:23:42.168Z,74.60
2018-08-30T02:26:46.605Z,74.60
2018-08-30T02:29:51.026Z,74.70
2018-08-30T02:32:55.502Z,74.80
2018-08-30T02:35:59.925Z,74.60
2018-08-30T02:39:05.006Z,74.90
2018-08-30T02:42:09.417Z,75.60
2018-08-30T02:45:13.817Z,75.90
2018-08-30T02:48:18.245Z,76.10
2018-08-30T02:51:22.645Z,76.30
2018-08-30T02:54:27.097Z,76.60
2018-08-30T02:57:31.519Z,76.80
2018-08-30T03:00:35.927Z,77.00
2018-08-30T03:03:40.370Z,77.00
2018-08-30T03:06:44.763Z,77.00
2018-08-30T03:09:49.175Z,76.80
2018-08-30T03:12:53.598Z,76.80
2018-08-30T03:15:58.033Z,77.20
2018-08-30T03:19:02.501Z,77.80
2018-08-30T03:22:06.940Z,78.10
2018-08-30T03:25:11.391Z,78.10
2018-08-30T03:28:15.813Z,78.20
2018-08-30T03:31:20.229Z,78.40
2018-08-30T03:34:24.778Z,78.70
2018-08-30T03:37:29.357Z,78.80
2018-08-30T03:40:33.786Z,78.70
2018-08-30T03:43:38.221Z,78.60
2018-08-30T03:46:42.650Z,78.60
2018-08-30T03:49:47.068Z,78.50
2018-08-30T03:52:51.526Z,78.50
2018-08-30T03:55:55.950Z,78.60
2018-08-30T03:59:00.374Z,79.00
2018-08-30T04:02:04.872Z,79.10
2018-08-30T04:05:09.319Z,79.20
2018-08-30T04:08:13.847Z,79.30
2018-08-30T04:11:18.267Z,79.40
2018-08-30T04:14:22.697Z,79.30
2018-08-30T04:17:27.384Z,79.30
2018-08-30T04:20:31.818Z,79.20
2018-08-30T04:23:36.234Z,78.70
2018-08-30T04:26:40.694Z,78.70
2018-08-30T04:29:45.120Z,78.40
2018-08-30T04:32:49.590Z,78.00
2018-08-30T04:35:54.038Z,77.90
2018-08-30T04:38:58.900Z,77.50
2018-08-30T04:42:03.326Z,77.30
2018-08-30T04:45:08.126Z,76.90
2018-08-30T04:48:12.579Z,76.50
2018-08-30T04:51:17.013Z,76.30
2018-08-30T04:54:21.406Z,76.20
2018-08-30T04:57:25.882Z,76.60
2018-08-30T05:00:30.335Z,77.30
2018-08-30T05:03:34.754Z,76.10
2018-08-30T05:06:39.173Z,76.20
2018-08-30T05:09:43.582Z,75.30
2018-08-30T05:12:48.027Z,75.40
2018-08-30T05:15:52.445Z,75.60
2018-08-30T05:18:56.869Z,75.60
2018-08-30T05:22:01.385Z,75.80
2018-08-30T05:25:04.881Z,76.30
2018-08-30T05:28:09.741Z,76.30
2018-08-30T05:31:14.204Z,76.40
2018-08-30T05:34:18.646Z,76.80
2018-08-30T05:37:23.067Z,76.70
2018-08-30T05:40:27.475Z,76.80
2018-08-30T05:43:31.914Z,77.10
2018-08-30T05:46:36.338Z,77.60
2018-08-30T05:49:40.746Z,77.60
2018-08-30T05:52:45.213Z,77.70
2018-08-30T05:55:49.683Z,77.80
2018-08-30T05:58:54.130Z,77.80
2018-08-30T06:01:58.560Z,78.30
2018-08-30T06:05:03.052Z,78.20
2018-08-30T06:08:07.582Z,78.90
2018-08-30T06:11:12.000Z,78.80
2018-08-30T06:14:16.438Z,78.30
2018-08-30T06:17:20.856Z,78.20
2018-08-30T06:20:25.257Z,78.30
2018-08-30T06:23:29.698Z,78.80
2018-08-30T06:26:34.099Z,79.30
2018-08-30T06:29:38.549Z,79.80
2018-08-30T06:32:43.041Z,80.60
2018-08-30T06:35:47.503Z,81.80
2018-08-30T06:38:52.182Z,82.20
2018-08-30T06:41:56.526Z,82.40
2018-08-30T06:45:00.987Z,82.80
2018-08-30T06:48:05.470Z,82.20
2018-08-30T06:51:09.941Z,83.10
2018-08-30T06:54:14.431Z,84.60
2018-08-30T06:57:18.898Z,85.20
2018-08-30T07:00:23.340Z,86.40
2018-08-30T07:03:27.786Z,86.20
2018-08-30T07:06:32.317Z,86.80
2018-08-30T07:09:36.791Z,86.10
2018-08-30T07:12:41.263Z,86.00
2018-08-30T07:15:45.718Z,85.90
2018-08-30T07:18:50.195Z,86.10
2018-08-30T07:21:54.668Z,84.70
2018-08-30T07:24:59.143Z,84.00
2018-08-30T07:28:03.609Z,84.30
2018-08-30T07:31:08.154Z,83.80
2018-08-30T07:34:12.662Z,83.90
2018-08-30T07:37:17.033Z,83.20
2018-08-30T07:40:21.483Z,83.50
2018-08-30T07:43:26.039Z,83.50
2018-08-30T07:46:30.474Z,82.90
2018-08-30T07:49:34.922Z,82.40
2018-08-30T07:52:39.353Z,80.80
2018-08-30T07:55:43.793Z,80.20
2018-08-30T07:58:48.233Z,80.50
2018-08-30T08:01:52.694Z,79.30
2018-08-30T08:04:57.218Z,79.50
2018-08-30T08:08:01.748Z,79.10
2018-08-30T08:11:07.009Z,80.00
2018-08-30T08:14:18.037Z,79.80
2018-08-30T08:17:22.790Z,79.10
2018-08-30T08:20:27.244Z,78.70
2018-08-30T08:23:31.691Z,78.80
2018-08-30T08:26:36.114Z,78.10
2018-08-30T08:29:40.587Z,78.20
2018-08-30T08:32:45.046Z,78.20
2018-08-30T08:35:49.558Z,78.70
2018-08-30T08:38:54.011Z,77.50
2018-08-30T08:41:58.521Z,77.00
2018-08-30T08:45:03.012Z,77.70
2018-08-30T08:48:07.623Z,77.80
2018-08-30T08:51:12.185Z,78.30
2018-08-30T08:54:16.799Z,78.00
2018-08-30T08:57:21.239Z,77.70
2018-08-30T09:00:25.756Z,76.80
2018-08-30T09:03:30.202Z,76.30
2018-08-30T09:06:34.693Z,75.10
2018-08-30T09:09:39.210Z,74.10
2018-08-30T09:12:44.243Z,74.50
2018-08-30T09:15:49.256Z,75.00
2018-08-30T09:18:53.723Z,74.50
2018-08-30T09:21:58.749Z,75.50
2018-08-30T09:25:03.845Z,75.90
2018-08-30T09:28:09.907Z,72.60
2018-08-30T09:31:14.967Z,71.70
2018-08-30T09:34:19.916Z,67.60
2018-08-30T09:37:24.402Z,66.30
2018-08-30T09:40:28.889Z,66.60
2018-08-30T09:43:33.376Z,67.60
2018-08-30T09:46:37.874Z,66.40
2018-08-30T09:49:42.352Z,66.80
2018-08-30T09:52:46.789Z,66.60
2018-08-30T09:55:51.290Z,65.60
2018-08-30T09:58:56.356Z,63.40
2018-08-30T10:02:03.370Z,61.00
2018-08-30T10:05:08.196Z,60.10
2018-08-30T10:08:13.441Z,57.80
2018-08-30T10:11:17.915Z,56.50
2018-08-30T10:14:22.366Z,56.60
2018-08-30T10:17:26.892Z,57.80
2018-08-30T10:20:31.414Z,58.10
2018-08-30T10:23:35.915Z,58.80
2018-08-30T10:26:40.525Z,60.00
2018-08-30T10:29:44.945Z,60.50
2018-08-30T10:32:49.393Z,60.90
2018-08-30T10:35:53.879Z,60.00
2018-08-30T10:38:58.364Z,60.00
2018-08-30T10:42:02.892Z,58.90
2018-08-30T10:45:07.569Z,59.80
2018-08-30T10:48:12.005Z,60.90
2018-08-30T10:51:16.506Z,61.30
2018-08-30T10:54:20.942Z,61.70
2018-08-30T10:57:25.478Z,61.50
2018-08-30T11:00:31.594Z,59.00
2018-08-30T11:03:36.118Z,57.80
2018-08-30T11:06:40.614Z,58.40
2018-08-30T11:09:45.034Z,58.20
2018-08-30T11:12:49.505Z,58.60
2018-08-30T11:15:53.906Z,57.20
2018-08-30T11:18:58.422Z,56.10
2018-08-30T11:22:02.863Z,53.20
2018-08-30T11:25:07.322Z,53.20
2018-08-30T11:28:11.986Z,53.00
2018-08-30T11:31:16.563Z,53.60
2018-08-30T11:34:21.035Z,55.20
2018-08-30T11:37:25.584Z,56.30
2018-08-30T11:40:30.175Z,54.50
2018-08-30T11:43:34.743Z,53.20
2018-08-30T11:46:39.266Z,55.10
2018-08-30T11:49:43.790Z,54.00
2018-08-30T11:52:48.385Z,53.30
2018-08-30T11:55:52.900Z,52.30
2018-08-30T11:58:57.370Z,52.40
2018-08-30T12:02:02.082Z,49.00
2018-08-30T12:05:07.108Z,48.70
2018-08-30T12:08:11.566Z,48.60
2018-08-30T12:11:19.088Z,47.90
2018-08-30T12:14:23.420Z,48.10
2018-08-30T12:17:27.926Z,47.00
2018-08-30T12:20:32.400Z,48.60
2018-08-30T12:23:36.852Z,49.10
2018-08-30T12:26:41.300Z,50.10
2018-08-30T12:29:45.764Z,51.20
2018-08-30T12:32:50.228Z,50.00
2018-08-30T12:35:54.955Z,48.00
2018-08-30T12:38:59.342Z,50.30
2018-08-30T12:42:05.407Z,48.60
2018-08-30T12:45:09.922Z,49.90
2018-08-30T12:48:14.360Z,49.10
2018-08-30T12:51:18.976Z,50.00
2018-08-30T12:54:23.404Z,48.80
2018-08-30T12:57:27.795Z,48.10
2018-08-30T13:00:32.366Z,48.00
2018-08-30T13:03:36.959Z,48.50
2018-08-30T13:06:46.102Z,48.10
2018-08-30T13:09:50.405Z,49.70
2018-08-30T13:12:54.864Z,49.90
2018-08-30T13:15:59.412Z,49.10
2018-08-30T13:19:03.777Z,47.70
2018-08-30T13:22:08.639Z,46.70
2018-08-30T13:25:13.009Z,46.00
2018-08-30T13:28:17.386Z,45.80
2018-08-30T13:31:21.841Z,46.00
2018-08-30T13:34:26.424Z,47.90
2018-08-30T13:37:30.915Z,48.60
2018-08-30T13:40:35.486Z,48.70
2018-08-30T13:43:39.905Z,48.00
2018-08-30T13:46:44.456Z,48.50
2018-08-30T13:49:48.613Z,47.10
2018-08-30T13:52:52.947Z,47.60
2018-08-30T13:55:57.430Z,46.30
2018-08-30T13:59:02.134Z,46.80
2018-08-30T14:02:06.294Z,45.80
2018-08-30T14:05:10.926Z,45.10
2018-08-30T14:08:15.363Z,44.40
2018-08-30T14:11:19.768Z,43.50
2018-08-30T14:14:24.108Z,42.20
2018-08-30T14:17:28.321Z,43.50
2018-08-30T14:20:32.750Z,43.10
2018-08-30T14:23:37.173Z,43.10
2018-08-30T14:26:41.633Z,43.60
2018-08-30T14:29:46.099Z,42.40
2018-08-30T14:32:50.615Z,43.10
2018-08-30T14:35:54.999Z,42.20
2018-08-30T14:38:59.586Z,41.80
2018-08-30T14:42:03.950Z,43.40
2018-08-30T14:45:08.426Z,42.20
2018-08-30T14:48:12.959Z,42.80
2018-08-30T14:51:17.441Z,43.70
2018-08-30T14:54:21.926Z,45.10
2018-08-30T14:57:26.414Z,45.20
2018-08-30T15:00:30.885Z,45.50
2018-08-30T15:03:35.322Z,45.70
2018-08-30T15:06:39.820Z,45.20
2018-08-30T15:09:44.522Z,46.30
2018-08-30T15:12:49.340Z,45.70
2018-08-30T15:15:53.694Z,46.30
2018-08-30T15:18:58.154Z,45.60
2018-08-30T15:22:02.569Z,45.00
2018-08-30T15:25:07.205Z,44.50
2018-08-30T15:28:11.687Z,45.70
2018-08-30T15:31:16.137Z,45.10
2018-08-30T15:34:20.777Z,45.90
2018-08-30T15:37:25.129Z,46.50
2018-08-30T15:40:29.586Z,47.50
2018-08-30T15:43:34.034Z,50.10
2018-08-30T15:46:38.490Z,51.10
2018-08-30T15:49:42.955Z,51.50
2018-08-30T15:52:47.389Z,52.40
2018-08-30T15:55:51.829Z,53.20
2018-08-30T15:58:56.347Z,54.00
2018-08-30T16:02:00.875Z,54.60
2018-08-30T16:05:05.404Z,55.20
2018-08-30T16:08:09.806Z,55.40
2018-08-30T16:11:14.299Z,56.20
2018-08-30T16:14:18.734Z,56.50
2018-08-30T16:17:23.527Z,57.30
2018-08-30T16:20:27.916Z,57.80
2018-08-30T16:23:33.770Z,58.20
2018-08-30T16:26:38.246Z,58.80
2018-08-30T16:29:42.753Z,59.00
2018-08-30T16:32:47.234Z,60.00
2018-08-30T16:35:51.822Z,60.10
2018-08-30T16:38:56.314Z,60.40
2018-08-30T16:42:00.793Z,60.80
2018-08-30T16:45:05.248Z,61.30
2018-08-30T16:48:09.754Z,61.70
2018-08-30T16:51:14.223Z,62.00
2018-08-30T16:54:18.765Z,61.90
2018-08-30T16:57:23.222Z,61.40
2018-08-30T17:00:27.926Z,62.70
2018-08-30T17:03:32.395Z,62.60
2018-08-30T17:06:36.980Z,62.70
2018-08-30T17:09:41.387Z,63.20
2018-08-30T17:12:45.893Z,63.00
2018-08-30T17:15:50.391Z,63.30
2018-08-30T17:19:00.694Z,63.60
2018-08-30T17:22:05.202Z,63.50
2018-08-30T17:25:09.676Z,63.90
2018-08-30T17:28:14.182Z,64.20
2018-08-30T17:31:18.791Z,64.20
2018-08-30T17:34:23.088Z,65.00
2018-08-30T17:37:27.496Z,65.30
2018-08-30T17:40:31.995Z,65.00
2018-08-30T17:43:36.576Z,65.50
2018-08-30T17:46:41.062Z,65.50
2018-08-30T17:49:45.610Z,66.70
2018-08-30T17:52:50.610Z,66.40
2018-08-30T17:56:01.964Z,65.70
2018-08-30T17:59:06.584Z,66.70
2018-08-30T18:02:10.978Z,67.00
2018-08-30T18:05:15.881Z,67.20
2018-08-30T18:08:20.442Z,67.00
2018-08-30T18:11:25.275Z,67.10
2018-08-30T18:14:29.721Z,67.20
2018-08-30T18:17:34.153Z,67.30
2018-08-30T18:20:38.606Z,66.90
2018-08-30T18:23:43.043Z,67.50
2018-08-30T18:26:47.586Z,67.50
2018-08-30T18:29:52.110Z,67.30
2018-08-30T18:32:56.550Z,67.40
2018-08-30T18:36:01.024Z,67.40
2018-08-30T18:39:08.807Z,67.60
2018-08-30T18:42:13.393Z,68.20
2018-08-30T18:45:17.917Z,68.30
2018-08-30T18:48:22.438Z,68.30
2018-08-30T18:51:26.947Z,68.70
2018-08-30T18:54:31.472Z,68.50
2018-08-30T18:57:36.030Z,68.80
2018-08-30T19:00:40.522Z,69.10
2018-08-30T19:03:45.000Z,70.00
2018-08-30T19:06:50.012Z,70.50
2018-08-30T19:09:54.635Z,71.10
2018-08-30T19:12:59.170Z,70.80
2018-08-30T19:16:08.997Z,70.80
2018-08-30T19:19:21.573Z,71.00
2018-08-30T19:22:26.114Z,71.80
2018-08-30T19:25:30.978Z,71.70
2018-08-30T19:28:35.450Z,71.60
2018-08-30T19:31:39.992Z,72.40
2018-08-30T19:34:44.461Z,73.00
2018-08-30T19:37:49.222Z,73.50
2018-08-30T19:40:58.851Z,74.40
2018-08-30T19:44:03.308Z,75.10
2018-08-30T19:47:07.777Z,75.80
2018-08-30T19:50:12.301Z,76.20
2018-08-30T19:53:16.775Z,76.10
2018-08-30T19:56:21.278Z,76.70
2018-08-30T19:59:25.729Z,76.10
2018-08-30T20:02:30.229Z,76.10
2018-08-30T20:05:34.737Z,76.10
2018-08-30T20:08:39.201Z,76.30
2018-08-30T20:11:43.742Z,76.20
2018-08-30T20:14:48.453Z,76.30
2018-08-30T20:17:52.938Z,76.50
2018-08-30T20:20:57.621Z,76.90
2018-08-30T20:24:02.063Z,76.80
2018-08-30T20:27:06.563Z,76.90
2018-08-30T20:30:17.777Z,77.20
2018-08-30T20:33:22.229Z,77.60
2018-08-30T20:36:26.663Z,77.90
2018-08-30T20:39:31.077Z,78.20
2018-08-30T20:42:35.506Z,78.60
2018-08-30T20:45:40.012Z,78.50
2018-08-30T20:48:44.515Z,78.40
2018-08-30T20:51:48.992Z,79.60
2018-08-30T20:54:53.541Z,78.90
2018-08-30T20:57:57.998Z,79.20
2018-08-30T21:01:02.430Z,79.30
2018-08-30T21:04:06.982Z,79.10
2018-08-30T21:07:11.412Z,79.00
2018-08-30T21:10:15.887Z,79.20
2018-08-30T21:13:21.289Z,79.90
2018-08-30T21:16:25.751Z,80.30
2018-08-30T21:19:30.211Z,80.30
2018-08-30T21:22:36.058Z,80.30
2018-08-30T21:25:41.086Z,80.40
2018-08-30T21:28:46.395Z,80.20
2018-08-30T21:31:50.841Z,80.70
2018-08-30T21:34:55.326Z,81.10
2018-08-30T21:37:59.782Z,80.60
2018-08-30T21:41:04.186Z,81.10
2018-08-30T21:44:08.670Z,81.60
2018-08-30T21:47:13.089Z,81.90
2018-08-30T21:50:17.589Z,81.90
2018-08-30T21:53:22.143Z,82.00
2018-08-30T21:56:26.574Z,81.50
2018-08-30T21:59:31.010Z,81.50
2018-08-30T22:02:35.504Z,81.00
2018-08-30T22:05:39.905Z,80.70
2018-08-30T22:08:44.370Z,80.40
2018-08-30T22:11:48.789Z,80.10
2018-08-30T22:14:53.238Z,79.90
2018-08-30T22:17:57.660Z,79.80
2018-08-30T22:21:02.186Z,79.50
2018-08-30T22:24:06.810Z,79.20
2018-08-30T22:27:11.249Z,79.00
2018-08-30T22:30:15.760Z,79.50
2018-08-30T22:33:20.218Z,79.70
2018-08-30T22:36:24.742Z,79.40
2018-08-30T22:39:29.293Z,79.70
2018-08-30T22:42:33.901Z,80.60
2018-08-30T22:45:38.330Z,79.60
2018-08-30T22:48:42.770Z,79.50
2018-08-30T22:51:47.177Z,79.70
2018-08-30T22:54:51.614Z,79.70
2018-08-30T22:57:56.086Z,79.70
2018-08-30T23:01:00.603Z,79.80
2018-08-30T23:04:05.046Z,79.70
2018-08-30T23:07:09.470Z,79.70
2018-08-30T23:10:13.896Z,79.10
2018-08-30T23:13:18.313Z,79.30
2018-08-30T23:16:22.753Z,79.00
2018-08-30T23:19:27.269Z,78.10
2018-08-30T23:22:31.718Z,77.60
2018-08-30T23:25:36.203Z,77.00
2018-08-30T23:28:40.664Z,76.80
2018-08-30T23:31:45.090Z,76.50
2018-08-30T23:34:49.646Z,75.90
2018-08-30T23:37:54.361Z,76.30
2018-08-30T23:40:58.802Z,76.60
2018-08-30T23:44:03.206Z,76.80
2018-08-30T23:47:07.652Z,76.60
2018-08-30T23:50:12.104Z,76.20
2018-08-30T23:53:16.546Z,76.00
2018-08-30T23:56:21.039Z,76.00
2018-08-30T23:59:42.391Z,75.80
